createdAt,value
2022-09-13T00:01:21.782Z,20.75
2022-09-13T00:03:50.650Z,21.92
2022-09-13T00:06:21.541Z,24.45
2022-09-13T00:08:50.554Z,20.83
2022-09-13T00:11:21.981Z,21.52
2022-09-13T00:13:50.656Z,21.00
2022-09-13T00:16:22.808Z,21.02
2022-09-13T00:18:51.756Z,20.55
2022-09-13T00:21:22.617Z,19.98
2022-09-13T00:23:52.942Z,20.10
2022-09-13T00:26:25.713Z,17.20
2022-09-13T00:28:56.093Z,19.13
2022-09-13T00:31:28.072Z,20.02
2022-09-13T00:33:58.625Z,18.85
2022-09-13T00:36:27.514Z,20.88
2022-09-13T00:38:56.323Z,20.38
2022-09-13T00:41:25.049Z,22.42
2022-09-13T00:43:55.355Z,23.17
2022-09-13T00:46:31.055Z,21.85
2022-09-13T00:49:04.099Z,24.27
2022-09-13T00:51:33.110Z,26.50
2022-09-13T00:54:02.074Z,28.70
2022-09-13T00:56:33.771Z,27.13
2022-09-13T00:59:04.438Z,27.20
2022-09-13T01:01:38.288Z,28.77
2022-09-13T01:04:09.677Z,35.92
2022-09-13T01:06:41.636Z,33.22
2022-09-13T01:09:12.159Z,31.67
2022-09-13T01:14:11.547Z,26.55
2022-09-13T01:16:43.761Z,32.72
2022-09-13T01:19:14.584Z,31.02
2022-09-13T01:22:28.773Z,32.50
2022-09-13T01:25:17.019Z,34.33
2022-09-13T01:27:59.429Z,32.25
2022-09-13T01:30:31.086Z,36.65
2022-09-13T01:33:14.009Z,32.65
2022-09-13T01:35:55.400Z,32.17
2022-09-13T01:38:35.686Z,27.52
2022-09-13T01:41:10.578Z,29.08
2022-09-13T01:43:47.140Z,29.30
2022-09-13T01:46:19.832Z,24.08
2022-09-13T01:48:56.079Z,26.05
2022-09-13T01:51:30.115Z,30.88
2022-09-13T01:54:18.384Z,23.48
2022-09-13T01:56:54.717Z,24.80
2022-09-13T01:59:31.475Z,26.70
2022-09-13T02:02:05.320Z,25.38
2022-09-13T02:04:40.409Z,29.60
2022-09-13T02:07:13.537Z,31.30
2022-09-13T02:09:44.293Z,29.40
2022-09-13T02:12:15.952Z,29.55
2022-09-13T02:14:47.848Z,30.75
2022-09-13T02:17:20.662Z,27.33
2022-09-13T02:19:51.676Z,26.88
2022-09-13T02:22:24.548Z,29.45
2022-09-13T02:24:55.866Z,22.13
2022-09-13T02:27:27.343Z,27.63
2022-09-13T02:29:59.795Z,24.13
2022-09-13T02:32:32.883Z,25.05
2022-09-13T02:35:04.047Z,23.63
2022-09-13T02:37:34.322Z,23.92
2022-09-13T02:40:06.238Z,21.42
2022-09-13T02:42:37.885Z,25.38
2022-09-13T02:45:07.833Z,21.23
2022-09-13T02:47:45.771Z,19.48
2022-09-13T02:50:34.905Z,19.95
2022-09-13T02:53:06.427Z,22.45
2022-09-13T02:55:42.904Z,17.73
2022-09-13T02:58:14.125Z,19.98
2022-09-13T03:00:42.930Z,22.77
2022-09-13T03:03:19.819Z,19.85
2022-09-13T03:05:48.623Z,22.08
2022-09-13T03:08:18.106Z,22.42
2022-09-13T03:10:53.426Z,18.40
2022-09-13T03:13:36.339Z,19.20
2022-09-13T03:16:13.659Z,18.05
2022-09-13T03:18:53.177Z,20.05
2022-09-13T03:21:32.742Z,19.73
2022-09-13T03:24:07.559Z,19.60
2022-09-13T03:26:44.428Z,21.15
2022-09-13T03:29:25.906Z,22.30
2022-09-13T03:31:59.381Z,20.55
2022-09-13T03:34:33.789Z,20.65
2022-09-13T03:37:07.302Z,21.55
2022-09-13T03:39:40.099Z,23.15
2022-09-13T03:42:16.115Z,19.92
2022-09-13T03:44:46.806Z,19.10
2022-09-13T03:47:16.046Z,20.95
2022-09-13T03:49:46.528Z,19.92
2022-09-13T03:52:15.271Z,18.27
2022-09-13T03:54:44.009Z,19.10
2022-09-13T03:57:14.347Z,18.05
2022-09-13T03:59:45.787Z,19.00
2022-09-13T04:02:15.369Z,18.85
2022-09-13T04:04:46.078Z,18.48
2022-09-13T04:07:16.352Z,16.20
2022-09-13T04:09:45.979Z,18.20
2022-09-13T04:12:15.357Z,18.03
2022-09-13T04:14:44.718Z,20.08
2022-09-13T04:17:13.400Z,18.80
2022-09-13T04:19:42.161Z,17.65
2022-09-13T04:22:12.385Z,20.60
2022-09-13T04:24:41.202Z,18.83
2022-09-13T04:27:09.892Z,18.35
2022-09-13T04:29:38.578Z,15.93
2022-09-13T04:32:07.601Z,20.90
2022-09-13T04:34:35.865Z,18.35
2022-09-13T04:37:04.897Z,17.65
2022-09-13T04:39:35.008Z,18.35
2022-09-13T04:42:03.733Z,17.85
2022-09-13T04:44:32.441Z,17.60
2022-09-13T04:47:01.342Z,16.85
2022-09-13T04:49:29.859Z,16.02
2022-09-13T04:51:58.490Z,16.15
2022-09-13T04:54:27.460Z,18.23
2022-09-13T04:56:57.865Z,14.93
2022-09-13T05:01:54.914Z,16.90
2022-09-13T05:04:23.606Z,18.67
2022-09-13T05:06:52.608Z,17.73
2022-09-13T05:09:21.234Z,15.80
2022-09-13T05:11:49.874Z,17.52
2022-09-13T05:14:19.890Z,17.08
2022-09-13T05:16:48.173Z,16.55
2022-09-13T05:19:16.865Z,15.88
2022-09-13T05:21:45.588Z,17.05
2022-09-13T05:24:14.191Z,17.42
2022-09-13T05:26:43.066Z,16.58
2022-09-13T05:29:11.596Z,16.70
2022-09-13T05:31:43.061Z,16.95
2022-09-13T05:34:13.216Z,17.73
2022-09-13T05:36:42.451Z,15.65
2022-09-13T05:39:39.790Z,15.02
2022-09-13T05:42:03.352Z,15.63
2022-09-13T05:44:31.960Z,17.02
2022-09-13T05:47:01.979Z,14.95
2022-09-13T05:49:30.263Z,16.37
2022-09-13T05:51:58.860Z,15.48
2022-09-13T05:54:27.504Z,15.93
2022-09-13T05:56:57.639Z,16.27
2022-09-13T05:59:26.277Z,16.65
2022-09-13T06:01:54.555Z,17.40
2022-09-13T06:04:24.658Z,17.58
2022-09-13T06:06:53.641Z,17.38
2022-09-13T06:09:22.332Z,18.65
2022-09-13T06:11:51.016Z,17.70
2022-09-13T06:14:19.657Z,16.10
2022-09-13T06:16:47.993Z,14.68
2022-09-13T06:19:16.577Z,17.52
2022-09-13T06:21:46.603Z,15.50
2022-09-13T06:24:15.431Z,16.13
2022-09-13T06:26:43.990Z,16.65
2022-09-13T06:29:12.808Z,15.00
2022-09-13T06:31:44.836Z,14.82
2022-09-13T06:34:15.692Z,14.30
2022-09-13T06:36:44.475Z,14.45
2022-09-13T06:39:14.535Z,15.23
2022-09-13T06:41:43.203Z,15.43
2022-09-13T06:44:11.781Z,14.60
2022-09-13T06:46:41.300Z,14.30
2022-09-13T06:49:11.168Z,13.82
2022-09-13T06:51:39.833Z,14.60
2022-09-13T06:54:08.570Z,14.82
2022-09-13T06:56:39.415Z,14.32
2022-09-13T06:59:09.794Z,14.48
2022-09-13T07:01:39.225Z,14.02
2022-09-13T07:04:09.669Z,13.27
2022-09-13T07:09:10.002Z,12.43
2022-09-13T07:11:41.648Z,12.30
2022-09-13T07:14:13.024Z,9.68
2022-09-13T07:16:41.287Z,8.70
2022-09-13T07:19:14.534Z,9.00
2022-09-13T07:21:43.376Z,8.85
2022-09-13T07:24:13.312Z,7.88
2022-09-13T07:26:43.677Z,7.20
2022-09-13T07:29:15.023Z,7.60
2022-09-13T07:31:45.580Z,7.55
2022-09-13T07:34:15.627Z,8.55
2022-09-13T07:39:15.740Z,8.10
2022-09-13T07:41:48.356Z,8.68
2022-09-13T07:44:16.966Z,7.40
2022-09-13T07:46:45.240Z,6.05
2022-09-13T07:49:15.676Z,5.63
2022-09-13T07:51:45.253Z,5.53
2022-09-13T07:54:15.479Z,5.20
2022-09-13T07:56:44.615Z,4.35
2022-09-13T07:59:16.325Z,4.50
2022-09-13T08:01:45.881Z,3.65
2022-09-13T08:04:20.876Z,4.03
2022-09-13T08:06:50.073Z,3.22
2022-09-13T08:09:19.060Z,3.13
2022-09-13T08:11:49.439Z,2.72
2022-09-13T08:14:21.413Z,2.50
2022-09-13T08:16:49.765Z,2.03
2022-09-13T08:19:19.930Z,1.60
2022-09-13T08:21:48.701Z,2.10
2022-09-13T08:24:19.174Z,1.90
2022-09-13T08:26:47.955Z,2.53
2022-09-13T08:29:16.759Z,2.00
2022-09-13T08:31:47.237Z,2.17
2022-09-13T08:34:17.082Z,2.15
2022-09-13T08:36:45.906Z,2.30
2022-09-13T08:39:14.957Z,1.73
2022-09-13T08:42:17.340Z,2.70
2022-09-13T08:44:47.568Z,1.92
2022-09-13T08:47:42.014Z,2.10
2022-09-13T08:50:18.829Z,1.70
2022-09-13T08:52:54.825Z,1.83
2022-09-13T08:55:27.899Z,2.25
2022-09-13T08:58:03.135Z,2.30
2022-09-13T09:00:34.491Z,1.75
2022-09-13T09:03:21.049Z,1.95
2022-09-13T09:05:51.289Z,1.75
2022-09-13T09:08:29.048Z,1.85
2022-09-13T09:10:58.740Z,1.88
2022-09-13T09:13:30.201Z,1.88
2022-09-13T09:16:01.351Z,1.75
2022-09-13T09:18:34.795Z,1.85
2022-09-13T09:21:04.725Z,1.98
2022-09-13T09:23:37.731Z,1.70
2022-09-13T09:26:17.142Z,1.63
2022-09-13T09:28:45.517Z,1.80
2022-09-13T09:31:17.776Z,1.95
2022-09-13T09:33:57.235Z,1.80
2022-09-13T09:36:31.809Z,2.40
2022-09-13T09:39:00.379Z,1.83
2022-09-13T09:41:31.701Z,2.53
2022-09-13T09:44:04.521Z,1.63
2022-09-13T09:46:35.687Z,1.63
2022-09-13T09:49:31.482Z,2.20
2022-09-13T09:52:01.781Z,1.40
2022-09-13T09:54:31.722Z,1.80
2022-09-13T09:57:00.413Z,1.60
2022-09-13T09:59:31.340Z,1.38
2022-09-13T10:02:00.623Z,1.23
2022-09-13T10:04:30.729Z,1.55
2022-09-13T10:07:18.861Z,1.65
2022-09-13T10:10:04.082Z,1.80
2022-09-13T10:12:34.107Z,1.75
2022-09-13T10:15:11.864Z,2.50
2022-09-13T10:17:40.487Z,1.38
2022-09-13T10:20:26.759Z,1.90
2022-09-13T10:23:18.644Z,2.03
2022-09-13T10:25:56.719Z,1.75
2022-09-13T10:28:25.868Z,1.63
2022-09-13T10:30:56.063Z,1.45
